createdAt,value
2022-11-12T00:00:54.417Z,6.56
2022-11-12T00:01:54.381Z,6.55
2022-11-12T00:02:54.288Z,6.54
2022-11-12T00:03:54.240Z,6.51
2022-11-12T00:04:54.138Z,6.51
2022-11-12T00:05:54.074Z,6.49
2022-11-12T00:06:54.088Z,6.44
2022-11-12T00:07:53.942Z,6.44
2022-11-12T00:08:53.888Z,6.41
2022-11-12T00:09:53.825Z,6.41
2022-11-12T00:10:53.782Z,6.43
2022-11-12T00:11:53.675Z,6.41
2022-11-12T00:12:53.614Z,6.41
2022-11-12T00:13:53.563Z,6.41
2022-11-12T00:14:53.500Z,6.41
2022-11-12T00:15:53.438Z,6.40
2022-11-12T00:16:53.380Z,6.38
2022-11-12T00:17:53.310Z,6.38
2022-11-12T00:18:53.230Z,6.37
2022-11-12T00:19:53.168Z,6.38
2022-11-12T00:20:53.156Z,6.33
2022-11-12T00:21:53.057Z,6.34
2022-11-12T00:22:53.009Z,6.34
2022-11-12T00:23:52.905Z,6.33
2022-11-12T00:24:52.858Z,6.31
2022-11-12T00:25:53.364Z,6.33
2022-11-12T00:26:52.758Z,6.33
2022-11-12T00:27:52.688Z,6.33
2022-11-12T00:28:52.612Z,6.33
2022-11-12T00:29:52.557Z,6.34
2022-11-12T00:30:52.506Z,6.31
2022-11-12T00:31:52.408Z,6.31
2022-11-12T00:32:52.348Z,6.28
2022-11-12T00:33:52.277Z,6.30
2022-11-12T00:34:52.242Z,6.30
2022-11-12T00:35:52.142Z,6.31
2022-11-12T00:36:52.113Z,6.30
2022-11-12T00:37:52.028Z,6.28
2022-11-12T00:38:51.948Z,6.25
2022-11-12T00:39:51.912Z,6.25
2022-11-12T00:40:51.831Z,6.21
2022-11-12T00:41:51.792Z,6.19
2022-11-12T00:42:51.705Z,6.22
2022-11-12T00:43:51.661Z,6.21
2022-11-12T00:44:51.574Z,6.21
2022-11-12T00:45:51.516Z,6.19
2022-11-12T00:46:51.462Z,6.21
2022-11-12T00:47:51.413Z,6.25
2022-11-12T00:48:51.336Z,6.22
2022-11-12T00:49:51.257Z,6.22
2022-11-12T00:50:51.210Z,6.25
2022-11-12T00:51:51.133Z,6.27
2022-11-12T00:52:51.070Z,6.27
2022-11-12T00:53:51.007Z,6.27
2022-11-12T00:54:50.933Z,6.25
2022-11-12T00:55:50.895Z,6.27
2022-11-12T00:56:50.794Z,6.25
2022-11-12T00:57:50.769Z,6.25
2022-11-12T00:58:50.737Z,6.18
2022-11-12T00:59:50.626Z,6.17
2022-11-12T01:00:50.586Z,6.15
2022-11-12T01:01:50.503Z,6.14
2022-11-12T01:02:51.498Z,6.12
2022-11-12T01:03:50.397Z,6.14
2022-11-12T01:04:50.858Z,6.09
2022-11-12T01:05:50.248Z,6.08
2022-11-12T01:06:50.281Z,6.08
2022-11-12T01:07:55.630Z,6.04
2022-11-12T01:08:50.044Z,6.00
2022-11-12T01:09:49.981Z,5.97
2022-11-12T01:13:29.331Z,5.90
2022-11-12T01:14:09.296Z,5.85
2022-11-12T01:15:09.213Z,5.81
2022-11-12T01:16:09.164Z,5.78
2022-11-12T01:17:09.111Z,5.78
2022-11-12T01:18:09.025Z,5.78
2022-11-12T01:19:08.997Z,5.75
2022-11-12T01:20:08.921Z,5.75
2022-11-12T01:21:08.821Z,5.72
2022-11-12T01:22:08.763Z,5.72
2022-11-12T01:23:08.705Z,5.74
2022-11-12T01:24:08.660Z,5.71
2022-11-12T01:25:08.855Z,5.68
2022-11-12T01:26:08.531Z,5.67
2022-11-12T01:27:08.471Z,5.64
2022-11-12T01:28:08.384Z,5.63
2022-11-12T01:29:08.333Z,5.61
2022-11-12T01:30:08.245Z,5.60
2022-11-12T01:31:08.198Z,5.57
2022-11-12T01:32:08.116Z,5.56
2022-11-12T01:33:08.074Z,5.56
2022-11-12T01:34:07.998Z,5.56
2022-11-12T01:35:07.930Z,5.56
2022-11-12T01:36:07.840Z,5.53
2022-11-12T01:37:07.828Z,5.53
2022-11-12T01:38:07.729Z,5.53
2022-11-12T01:39:07.668Z,5.54
2022-11-12T01:40:07.584Z,5.53
2022-11-12T01:41:07.549Z,5.49
2022-11-12T01:42:07.468Z,5.46
2022-11-12T01:43:07.447Z,5.45
2022-11-12T01:44:07.350Z,5.42
2022-11-12T01:45:07.315Z,5.39
2022-11-12T01:46:07.209Z,5.33
2022-11-12T01:47:07.792Z,5.30
2022-11-12T01:48:07.077Z,5.24
2022-11-12T01:51:25.505Z,5.17
2022-11-12T01:52:26.444Z,5.10
2022-11-12T01:53:26.386Z,5.09
2022-11-12T01:54:26.300Z,5.06
2022-11-12T01:55:26.228Z,5.07
2022-11-12T01:56:26.206Z,5.06
2022-11-12T01:57:28.484Z,5.07
2022-11-12T01:58:26.320Z,5.07
2022-11-12T01:59:25.980Z,5.06
2022-11-12T02:00:25.893Z,5.04
2022-11-12T02:01:25.911Z,5.03
2022-11-12T02:02:34.934Z,5.02
2022-11-12T02:03:25.754Z,5.03
2022-11-12T02:04:25.655Z,5.00
2022-11-12T02:05:25.624Z,5.02
2022-11-12T02:06:25.557Z,5.04
2022-11-12T02:07:25.473Z,5.04
2022-11-12T02:08:28.080Z,5.03
2022-11-12T02:09:25.342Z,5.00
2022-11-12T02:10:25.276Z,5.00
2022-11-12T02:11:25.247Z,4.97
2022-11-12T02:12:25.161Z,4.96
2022-11-12T02:13:25.065Z,4.97
2022-11-12T02:14:25.052Z,4.94
2022-11-12T02:15:24.975Z,4.94
2022-11-12T02:16:25.374Z,4.92
2022-11-12T02:17:24.835Z,4.91
2022-11-12T02:18:25.064Z,4.86
2022-11-12T02:19:24.659Z,4.84
2022-11-12T02:20:24.613Z,4.80
2022-11-12T02:21:24.527Z,4.77
2022-11-12T02:22:24.474Z,4.70
2022-11-12T02:23:24.934Z,4.72
2022-11-12T02:24:24.323Z,4.69
2022-11-12T02:25:24.257Z,4.67
2022-11-12T02:26:45.213Z,4.67
2022-11-12T02:27:24.105Z,4.65
2022-11-12T02:28:24.524Z,4.63
2022-11-12T02:29:23.989Z,4.60
2022-11-12T02:30:23.956Z,4.58
2022-11-12T02:31:23.887Z,4.55
2022-11-12T02:32:23.826Z,4.59
2022-11-12T02:33:23.739Z,4.59
2022-11-12T02:34:23.689Z,4.58
2022-11-12T02:35:23.627Z,4.58
2022-11-12T02:36:23.565Z,4.55
2022-11-12T02:37:23.473Z,4.54
2022-11-12T02:38:23.747Z,4.54
2022-11-12T02:39:23.391Z,4.52
2022-11-12T02:40:23.365Z,4.54
2022-11-12T02:41:23.260Z,4.54
2022-11-12T02:42:23.212Z,4.54
2022-11-12T02:43:23.171Z,4.54
2022-11-12T02:44:24.322Z,4.50
2022-11-12T02:45:23.021Z,4.52
2022-11-12T02:46:22.966Z,4.52
2022-11-12T02:47:22.891Z,4.54
2022-11-12T02:48:22.856Z,4.52
2022-11-12T02:49:22.758Z,4.51
2022-11-12T02:50:22.714Z,4.52
2022-11-12T02:51:22.659Z,4.54
2022-11-12T02:52:22.601Z,4.58
2022-11-12T02:53:22.503Z,4.55
2022-11-12T02:54:22.461Z,4.52
2022-11-12T02:55:22.385Z,4.51
2022-11-12T02:56:22.324Z,4.48
2022-11-12T02:57:22.254Z,4.48
2022-11-12T02:58:22.171Z,4.48
2022-11-12T02:59:22.123Z,4.50
2022-11-12T03:00:22.052Z,4.50
2022-11-12T03:01:22.074Z,4.47
2022-11-12T03:02:21.940Z,4.47
2022-11-12T03:03:21.863Z,4.45
2022-11-12T03:04:21.807Z,4.44
2022-11-12T03:05:21.738Z,4.44
2022-11-12T03:06:21.652Z,4.44
2022-11-12T03:07:21.614Z,4.41
2022-11-12T03:08:21.586Z,4.41
2022-11-12T03:09:21.488Z,4.42
2022-11-12T03:10:21.396Z,4.44
2022-11-12T03:11:21.368Z,4.44
2022-11-12T03:12:21.298Z,4.42
2022-11-12T03:13:21.226Z,4.42
2022-11-12T03:14:21.162Z,4.42
2022-11-12T03:15:21.104Z,4.40
2022-11-12T03:16:21.003Z,4.37
2022-11-12T03:17:20.973Z,4.37
2022-11-12T03:18:20.889Z,4.36
2022-11-12T03:19:20.857Z,4.33
2022-11-12T03:20:20.795Z,4.30
2022-11-12T03:21:20.708Z,4.27
2022-11-12T03:22:20.619Z,4.27
2022-11-12T03:23:20.584Z,4.26
2022-11-12T03:24:20.509Z,4.24
2022-11-12T03:25:20.464Z,4.26
2022-11-12T03:26:20.404Z,4.27
2022-11-12T03:27:20.324Z,4.27
2022-11-12T03:28:20.246Z,4.26
2022-11-12T03:29:20.187Z,4.23
2022-11-12T03:30:20.129Z,4.16
2022-11-12T03:31:20.072Z,4.15
2022-11-12T03:32:20.007Z,4.12
2022-11-12T03:33:19.936Z,4.14
2022-11-12T03:34:19.882Z,4.15
2022-11-12T03:35:19.806Z,4.12
2022-11-12T03:36:19.762Z,4.11
2022-11-12T03:37:19.667Z,4.12
2022-11-12T03:38:43.003Z,4.12
2022-11-12T03:39:19.536Z,4.08
2022-11-12T03:40:19.481Z,4.06
2022-11-12T03:41:19.425Z,4.04
2022-11-12T03:42:19.370Z,4.02
2022-11-12T03:43:19.285Z,4.02
2022-11-12T03:44:19.244Z,4.04
2022-11-12T03:45:19.162Z,4.02
2022-11-12T03:46:19.092Z,4.02
2022-11-12T03:47:19.033Z,4.02
2022-11-12T03:48:18.990Z,4.02
2022-11-12T03:49:18.923Z,4.02
2022-11-12T03:50:18.865Z,4.04
2022-11-12T03:51:18.800Z,4.05
2022-11-12T03:52:18.713Z,4.05
2022-11-12T03:53:18.640Z,4.05
2022-11-12T03:54:18.598Z,4.06
2022-11-12T03:55:18.510Z,4.05
2022-11-12T03:56:43.441Z,4.08
2022-11-12T03:57:18.392Z,4.09
2022-11-12T03:58:18.321Z,4.08
2022-11-12T03:59:18.239Z,4.06
2022-11-12T04:00:18.190Z,4.08
2022-11-12T04:01:18.198Z,4.08
2022-11-12T04:02:18.083Z,4.06
2022-11-12T04:03:18.005Z,4.05
2022-11-12T04:04:17.939Z,4.04
2022-11-12T04:05:17.869Z,4.04
2022-11-12T04:06:17.817Z,4.02
2022-11-12T04:07:17.813Z,4.04
2022-11-12T04:08:17.678Z,4.05
2022-11-12T04:09:17.635Z,4.05
2022-11-12T04:10:17.556Z,4.06
2022-11-12T04:11:17.495Z,4.04
2022-11-12T04:12:17.419Z,4.02
2022-11-12T04:13:17.358Z,3.98
2022-11-12T04:14:18.839Z,3.97
2022-11-12T04:15:17.227Z,3.94
2022-11-12T04:16:17.140Z,3.93
2022-11-12T04:17:17.114Z,3.93
2022-11-12T04:18:17.025Z,3.93
2022-11-12T04:19:16.961Z,3.91
2022-11-12T04:20:17.251Z,3.88
2022-11-12T04:21:17.348Z,3.93
2022-11-12T04:22:16.763Z,3.93
2022-11-12T04:23:16.720Z,3.91
2022-11-12T04:24:16.624Z,3.91
2022-11-12T04:25:16.587Z,3.90
2022-11-12T04:26:16.541Z,3.90
2022-11-12T04:27:16.472Z,3.90
2022-11-12T04:28:16.380Z,3.90
2022-11-12T04:29:16.312Z,3.91
2022-11-12T04:30:16.269Z,3.94
2022-11-12T04:31:16.193Z,3.94
2022-11-12T04:32:16.152Z,3.94
2022-11-12T04:33:16.081Z,3.94
2022-11-12T04:34:16.007Z,3.94
2022-11-12T04:35:15.957Z,3.93
2022-11-12T04:36:15.859Z,3.94
2022-11-12T04:37:17.830Z,3.93
2022-11-12T04:38:15.788Z,3.94
2022-11-12T04:39:15.691Z,3.91
2022-11-12T04:40:15.600Z,3.90
2022-11-12T04:41:15.571Z,3.88
2022-11-12T04:42:15.480Z,3.86
2022-11-12T04:43:15.422Z,3.84
2022-11-12T04:44:15.360Z,3.86
2022-11-12T04:45:15.304Z,3.83
2022-11-12T04:46:15.219Z,3.84
2022-11-12T04:47:15.176Z,3.83
2022-11-12T04:48:15.087Z,3.83
2022-11-12T04:49:15.046Z,3.84
2022-11-12T04:50:37.155Z,3.84
2022-11-12T04:51:14.895Z,3.83
2022-11-12T04:52:14.844Z,3.83
2022-11-12T04:53:14.778Z,3.84
2022-11-12T04:54:14.724Z,3.80
2022-11-12T04:55:14.621Z,3.80
2022-11-12T04:56:14.603Z,3.83
2022-11-12T04:57:14.526Z,3.84
2022-11-12T04:58:14.457Z,3.86
2022-11-12T04:59:14.384Z,3.88
2022-11-12T05:00:14.316Z,3.87
2022-11-12T05:01:14.300Z,3.90
2022-11-12T05:02:14.202Z,3.91
2022-11-12T05:03:14.125Z,3.93
2022-11-12T05:04:14.056Z,3.93
2022-11-12T05:05:13.981Z,3.94
2022-11-12T05:06:13.944Z,3.93
2022-11-12T05:07:13.913Z,3.94
2022-11-12T05:08:13.805Z,3.96
2022-11-12T05:09:13.733Z,3.94
2022-11-12T05:10:13.651Z,3.94
2022-11-12T05:11:13.621Z,3.96
2022-11-12T05:12:13.549Z,3.96
2022-11-12T05:13:13.468Z,3.97
2022-11-12T05:14:13.438Z,3.97
2022-11-12T05:15:13.349Z,3.98
2022-11-12T05:16:13.298Z,3.98
2022-11-12T05:17:13.240Z,4.00
2022-11-12T05:18:13.132Z,4.00
2022-11-12T05:19:13.079Z,4.00
2022-11-12T05:20:13.311Z,4.00
2022-11-12T05:21:12.977Z,4.00
2022-11-12T05:22:33.224Z,4.00
2022-11-12T05:23:12.860Z,4.02
2022-11-12T05:24:27.617Z,4.04
2022-11-12T05:25:12.699Z,4.05
2022-11-12T05:26:15.054Z,4.05
2022-11-12T05:27:12.596Z,4.06
2022-11-12T05:28:12.486Z,4.06
2022-11-12T05:29:12.437Z,4.06
2022-11-12T05:30:12.380Z,4.06
2022-11-12T05:31:12.319Z,4.08
2022-11-12T05:32:12.250Z,4.09
2022-11-12T05:33:12.194Z,4.12
2022-11-12T05:34:12.129Z,4.12
2022-11-12T05:35:12.047Z,4.11
2022-11-12T05:36:11.985Z,4.14
2022-11-12T05:37:11.907Z,4.15
2022-11-12T05:38:11.887Z,4.18
2022-11-12T05:39:11.793Z,4.15
2022-11-12T05:40:11.739Z,4.14
2022-11-12T05:41:15.963Z,4.14
2022-11-12T05:42:13.445Z,4.15
2022-11-12T05:43:11.535Z,4.12
2022-11-12T05:44:11.483Z,4.09
2022-11-12T05:45:11.419Z,4.11
2022-11-12T05:46:11.360Z,4.08
2022-11-12T05:47:11.285Z,4.09
2022-11-12T05:48:11.194Z,4.08
2022-11-12T05:49:11.155Z,4.06
2022-11-12T05:50:11.089Z,4.05
2022-11-12T05:51:13.375Z,4.02
2022-11-12T05:52:10.960Z,4.00
2022-11-12T05:53:10.893Z,3.98
2022-11-12T05:54:10.820Z,3.98
2022-11-12T05:55:10.782Z,3.97
2022-11-12T05:56:11.407Z,3.97
2022-11-12T05:57:10.658Z,3.98
2022-11-12T05:58:10.572Z,3.97
2022-11-12T05:59:10.507Z,3.97
2022-11-12T06:00:10.468Z,3.96
2022-11-12T06:01:10.397Z,3.94
2022-11-12T06:02:11.550Z,3.97
2022-11-12T06:03:10.251Z,3.96
2022-11-12T06:04:10.190Z,3.97
2022-11-12T06:05:10.108Z,3.96
2022-11-12T06:06:10.063Z,3.93
2022-11-12T06:07:09.996Z,3.93
2022-11-12T06:08:09.927Z,3.94
2022-11-12T06:09:09.835Z,3.96
2022-11-12T06:10:09.736Z,3.96
2022-11-12T06:11:09.679Z,4.00
2022-11-12T06:12:09.634Z,4.00
2022-11-12T06:13:09.561Z,4.04
2022-11-12T06:14:09.507Z,4.05
2022-11-12T06:15:09.427Z,4.04
2022-11-12T06:16:09.361Z,4.04
2022-11-12T06:17:09.314Z,4.04
2022-11-12T06:18:09.274Z,4.04
2022-11-12T06:19:09.157Z,4.04
2022-11-12T06:20:09.126Z,4.02
2022-11-12T06:21:09.042Z,4.02
2022-11-12T06:22:08.962Z,4.00
2022-11-12T06:23:08.914Z,4.00
2022-11-12T06:24:08.824Z,3.97
2022-11-12T06:25:08.807Z,3.94
2022-11-12T06:26:09.011Z,3.91
2022-11-12T06:27:08.627Z,3.91
2022-11-12T06:28:08.648Z,3.90
2022-11-12T06:29:08.546Z,3.90
2022-11-12T06:30:08.467Z,3.88
2022-11-12T06:31:08.364Z,3.88
2022-11-12T06:32:08.622Z,3.87
2022-11-12T06:33:08.274Z,3.86
2022-11-12T06:34:08.209Z,3.86
2022-11-12T06:35:08.161Z,3.83
2022-11-12T06:36:08.059Z,3.84
2022-11-12T06:37:08.002Z,3.86
2022-11-12T06:38:29.172Z,3.83
2022-11-12T06:39:07.858Z,3.84
2022-11-12T06:40:07.800Z,3.79
2022-11-12T06:41:07.761Z,3.79
2022-11-12T06:42:07.696Z,3.79
2022-11-12T06:43:07.650Z,3.78
2022-11-12T06:44:07.559Z,3.76
2022-11-12T06:45:07.481Z,3.78
2022-11-12T06:46:07.423Z,3.72
2022-11-12T06:47:07.332Z,3.72
2022-11-12T06:48:07.295Z,3.70
2022-11-12T06:49:07.206Z,3.69
2022-11-12T06:50:07.183Z,3.69
2022-11-12T06:51:07.097Z,3.70
2022-11-12T06:52:07.045Z,3.68
2022-11-12T06:53:06.977Z,3.70
2022-11-12T06:54:07.041Z,3.72
2022-11-12T06:55:06.841Z,3.72
2022-11-12T06:56:27.761Z,3.72
2022-11-12T06:57:06.723Z,3.73
2022-11-12T06:58:06.637Z,3.78
2022-11-12T06:59:06.599Z,3.78
2022-11-12T07:00:06.528Z,3.79
2022-11-12T07:01:11.148Z,3.84
2022-11-12T07:02:06.468Z,3.84
2022-11-12T07:03:06.318Z,3.86
2022-11-12T07:04:06.261Z,3.84
2022-11-12T07:05:06.199Z,3.86
2022-11-12T07:06:06.118Z,3.87
2022-11-12T07:07:10.461Z,3.84
2022-11-12T07:08:06.009Z,3.86
2022-11-12T07:09:05.930Z,3.90
2022-11-12T07:10:05.867Z,3.91
2022-11-12T07:11:05.825Z,3.93
2022-11-12T07:12:05.751Z,3.94
2022-11-12T07:13:05.674Z,3.96
2022-11-12T07:16:24.014Z,4.02
2022-11-12T07:17:24.939Z,4.04
2022-11-12T07:18:25.209Z,4.05
2022-11-12T07:19:24.793Z,4.04
2022-11-12T07:20:24.750Z,4.05
2022-11-12T07:21:25.496Z,4.06
2022-11-12T07:22:24.610Z,4.11
2022-11-12T07:23:24.561Z,4.11
2022-11-12T07:24:24.491Z,4.14
2022-11-12T07:25:24.412Z,4.15
2022-11-12T07:26:24.343Z,4.16
2022-11-12T07:27:24.576Z,4.22
2022-11-12T07:28:24.528Z,4.22
2022-11-12T07:29:42.516Z,4.24
2022-11-12T07:30:24.102Z,4.23
2022-11-12T07:31:24.011Z,4.26
2022-11-12T07:32:23.968Z,4.29
2022-11-12T07:33:24.174Z,4.29
2022-11-12T07:34:23.847Z,4.33
2022-11-12T07:35:23.763Z,4.33
2022-11-12T07:36:23.704Z,4.32
2022-11-12T07:37:23.627Z,4.32
2022-11-12T07:38:23.801Z,4.33
2022-11-12T07:39:23.523Z,4.33
2022-11-12T07:40:23.437Z,4.29
2022-11-12T07:41:23.380Z,4.30
2022-11-12T07:42:23.341Z,4.30
2022-11-12T07:43:23.240Z,4.30
2022-11-12T07:44:23.181Z,4.32
2022-11-12T07:45:23.127Z,4.33
2022-11-12T07:46:23.064Z,4.33
2022-11-12T07:47:22.965Z,4.34
2022-11-12T07:48:23.071Z,4.36
2022-11-12T07:49:22.830Z,4.41
2022-11-12T07:50:22.817Z,4.42
2022-11-12T07:51:26.772Z,4.45
2022-11-12T07:52:22.684Z,4.47
2022-11-12T07:53:22.621Z,4.50
2022-11-12T07:54:22.536Z,4.51
2022-11-12T07:55:22.447Z,4.54
2022-11-12T07:56:22.421Z,4.55
2022-11-12T07:57:22.355Z,4.60
2022-11-12T07:58:22.262Z,4.63
2022-11-12T07:59:22.220Z,4.65
2022-11-12T08:00:22.143Z,4.67
2022-11-12T08:01:22.140Z,4.67
2022-11-12T08:02:22.020Z,4.69
2022-11-12T08:03:22.026Z,4.69
2022-11-12T08:04:21.900Z,4.70
2022-11-12T08:05:21.848Z,4.70
2022-11-12T08:06:22.495Z,4.75
2022-11-12T08:07:21.786Z,4.77
2022-11-12T08:08:21.630Z,4.80
2022-11-12T08:09:21.608Z,4.85
2022-11-12T08:10:21.520Z,4.88
2022-11-12T08:11:21.453Z,4.88
2022-11-12T08:12:21.356Z,4.88
2022-11-12T08:13:21.314Z,4.89
2022-11-12T08:14:21.219Z,4.92
2022-11-12T08:15:21.189Z,4.92
2022-11-12T08:16:21.087Z,4.94
2022-11-12T08:17:21.044Z,4.99
2022-11-12T08:18:20.955Z,4.99
2022-11-12T08:19:20.935Z,4.99
2022-11-12T08:20:20.840Z,4.99
2022-11-12T08:21:20.826Z,5.00
2022-11-12T08:22:20.736Z,5.02
2022-11-12T08:23:20.684Z,5.02
2022-11-12T08:24:20.580Z,5.03
2022-11-12T08:25:20.527Z,5.04
2022-11-12T08:26:20.473Z,5.04
2022-11-12T08:27:20.451Z,5.06
2022-11-12T08:28:20.337Z,5.07
2022-11-12T08:29:20.293Z,5.09
2022-11-12T08:30:20.204Z,5.12
2022-11-12T08:31:20.152Z,5.15
2022-11-12T08:32:20.065Z,5.13
2022-11-12T08:34:58.870Z,5.17
2022-11-12T08:35:59.797Z,5.15
2022-11-12T08:36:59.773Z,5.17
2022-11-12T08:37:59.666Z,5.17
2022-11-12T08:38:59.666Z,5.13
2022-11-12T08:39:59.535Z,5.15
2022-11-12T08:40:59.463Z,5.18
2022-11-12T08:41:59.416Z,5.13
2022-11-12T08:42:59.349Z,5.09
2022-11-12T08:44:01.914Z,5.10
2022-11-12T08:46:08.411Z,5.13
2022-11-12T08:47:09.334Z,5.15
2022-11-12T08:48:09.261Z,5.18
2022-11-12T08:49:09.237Z,5.21
2022-11-12T08:50:09.141Z,5.24
2022-11-12T08:51:09.101Z,5.27
2022-11-12T08:52:09.009Z,5.30
2022-11-12T08:53:08.970Z,5.33
2022-11-12T08:54:08.916Z,5.36
2022-11-12T08:55:08.827Z,5.38
2022-11-12T08:56:08.749Z,5.36
2022-11-12T08:57:09.391Z,5.36
2022-11-12T08:58:08.627Z,5.38
2022-11-12T08:59:08.578Z,5.38
2022-11-12T09:00:08.499Z,5.36
2022-11-12T09:01:08.536Z,5.38
2022-11-12T09:02:08.369Z,5.39
2022-11-12T09:03:29.314Z,5.45
2022-11-12T09:04:08.265Z,5.46
2022-11-12T09:05:08.179Z,5.45
2022-11-12T09:06:08.136Z,5.45
2022-11-12T09:07:09.729Z,5.48
2022-11-12T09:08:08.026Z,5.51
2022-11-12T09:09:07.927Z,5.51
2022-11-12T09:10:07.844Z,5.54
2022-11-12T09:11:07.784Z,5.56
2022-11-12T09:12:14.973Z,5.57
2022-11-12T09:13:07.667Z,5.57
2022-11-12T09:14:07.735Z,5.56
2022-11-12T09:15:36.296Z,5.56
2022-11-12T09:16:07.481Z,5.56
2022-11-12T09:17:07.431Z,5.56
2022-11-12T09:18:07.335Z,5.57
2022-11-12T09:19:07.296Z,5.54
2022-11-12T09:20:07.209Z,5.54
2022-11-12T09:22:19.760Z,5.48
2022-11-12T09:23:17.328Z,5.43
2022-11-12T09:24:17.337Z,5.43
2022-11-12T09:25:17.198Z,5.43
2022-11-12T09:26:17.138Z,5.46
2022-11-12T09:27:17.068Z,5.45
2022-11-12T09:28:17.041Z,5.45
2022-11-12T09:29:16.952Z,5.48
2022-11-12T09:30:16.888Z,5.49
2022-11-12T09:31:16.825Z,5.49
2022-11-12T09:32:16.723Z,5.51
2022-11-12T09:33:16.677Z,5.51
2022-11-12T09:34:17.073Z,5.49
2022-11-12T09:35:16.555Z,5.49
2022-11-12T09:36:16.494Z,5.49
2022-11-12T09:37:16.431Z,5.53
2022-11-12T09:38:16.393Z,5.56
2022-11-12T09:39:16.323Z,5.60
2022-11-12T09:40:17.820Z,5.63
2022-11-12T09:41:16.191Z,5.63
2022-11-12T09:42:16.122Z,5.64
2022-11-12T09:43:16.050Z,5.65
2022-11-12T09:44:15.990Z,5.67
2022-11-12T09:45:15.918Z,5.72
2022-11-12T09:46:27.977Z,5.74
2022-11-12T09:47:15.773Z,5.76
2022-11-12T09:48:15.733Z,5.79
2022-11-12T09:49:15.650Z,5.85
2022-11-12T09:50:15.594Z,5.89
2022-11-12T09:51:15.507Z,5.91
2022-11-12T09:52:15.549Z,5.96
2022-11-12T09:53:15.394Z,6.00
2022-11-12T09:54:16.856Z,6.04
2022-11-12T09:55:15.276Z,6.11
2022-11-12T09:56:15.228Z,6.15
2022-11-12T09:57:15.172Z,6.18
2022-11-12T09:58:16.318Z,6.28
2022-11-12T09:59:15.002Z,6.33
2022-11-12T10:00:14.958Z,6.36
2022-11-12T10:01:14.962Z,6.44
2022-11-12T10:02:14.837Z,6.51
2022-11-12T10:03:14.776Z,6.58
2022-11-12T10:04:14.740Z,6.64
2022-11-12T10:05:14.646Z,6.70
2022-11-12T10:06:18.132Z,6.77
2022-11-12T10:07:14.548Z,6.80
2022-11-12T10:08:14.420Z,6.88
2022-11-12T10:09:14.396Z,6.94
2022-11-12T10:10:14.349Z,7.02
2022-11-12T10:11:14.245Z,7.12
2022-11-12T10:12:14.193Z,7.20
2022-11-12T10:13:14.118Z,7.27
2022-11-12T10:14:14.072Z,7.35
2022-11-12T10:15:13.988Z,7.45
2022-11-12T10:16:38.907Z,7.50
2022-11-12T10:17:13.872Z,7.60
2022-11-12T10:18:13.829Z,7.63
2022-11-12T10:19:13.725Z,7.68
2022-11-12T10:20:13.686Z,7.71
2022-11-12T10:21:13.622Z,7.74
2022-11-12T10:22:13.584Z,7.75
2022-11-12T10:23:13.491Z,7.77
2022-11-12T10:24:13.402Z,7.75
2022-11-12T10:25:13.399Z,7.79
2022-11-12T10:26:13.313Z,7.79
2022-11-12T10:27:13.244Z,7.80
2022-11-12T10:28:13.156Z,7.77
2022-11-12T10:29:13.120Z,7.79
2022-11-12T10:30:13.035Z,7.79
2022-11-12T10:31:12.969Z,7.80
2022-11-12T10:32:12.905Z,7.85
2022-11-12T10:33:12.844Z,7.89
2022-11-12T10:36:31.136Z,8.04
2022-11-12T10:37:32.050Z,8.10
2022-11-12T10:38:31.991Z,8.18
2022-11-12T10:39:31.943Z,8.25
2022-11-12T10:40:31.835Z,8.33
2022-11-12T10:41:31.821Z,8.40
2022-11-12T10:42:31.737Z,8.45
2022-11-12T10:43:31.697Z,8.52
2022-11-12T10:44:32.615Z,8.56
2022-11-12T10:45:31.557Z,8.61
2022-11-12T10:46:32.120Z,8.63
2022-11-12T10:47:31.416Z,8.66
2022-11-12T10:48:31.559Z,8.71
2022-11-12T10:49:31.302Z,8.74
2022-11-12T10:50:31.237Z,8.79
2022-11-12T10:51:31.163Z,8.79
2022-11-12T10:52:31.094Z,8.79
2022-11-12T10:53:31.055Z,8.74
2022-11-12T10:54:30.968Z,8.77
2022-11-12T10:55:30.879Z,8.80
2022-11-12T10:56:30.850Z,8.84
2022-11-12T10:57:30.788Z,8.87
2022-11-12T10:58:30.730Z,8.92
2022-11-12T10:59:30.642Z,8.95
2022-11-12T11:00:30.559Z,9.01
2022-11-12T11:01:35.539Z,9.08
2022-11-12T11:02:30.519Z,9.08
2022-11-12T11:03:30.382Z,9.13
2022-11-12T11:04:30.319Z,9.15
2022-11-12T11:05:30.262Z,9.18
2022-11-12T11:06:30.182Z,9.20
2022-11-12T11:07:30.131Z,9.21
2022-11-12T11:08:34.681Z,9.21
2022-11-12T11:09:29.996Z,9.21
2022-11-12T11:10:29.960Z,9.26
2022-11-12T11:12:39.077Z,9.29
2022-11-12T11:13:39.998Z,9.26
2022-11-12T11:14:39.926Z,9.28
2022-11-12T11:15:39.838Z,9.26
2022-11-12T11:16:39.780Z,9.28
2022-11-12T11:17:39.750Z,9.28
2022-11-12T11:18:39.639Z,9.28
2022-11-12T11:19:39.584Z,9.29
2022-11-12T11:20:39.526Z,9.31
2022-11-12T11:21:42.638Z,9.32
2022-11-12T11:22:39.399Z,9.33
2022-11-12T11:23:39.346Z,9.38
2022-11-12T11:24:39.270Z,9.43
2022-11-12T11:25:39.185Z,9.50
2022-11-12T11:26:39.159Z,9.51
2022-11-12T11:27:39.083Z,9.54
2022-11-12T11:28:39.031Z,9.54
2022-11-12T11:29:38.956Z,9.58
2022-11-12T11:30:38.895Z,9.60
2022-11-12T11:31:38.815Z,9.64
2022-11-12T11:32:38.773Z,9.68
2022-11-12T11:33:38.704Z,9.71
2022-11-12T11:34:38.615Z,9.75
2022-11-12T11:35:38.614Z,9.81
2022-11-12T11:36:38.495Z,9.86
2022-11-12T11:37:38.438Z,9.90
2022-11-12T11:38:38.355Z,9.90
2022-11-12T11:39:38.286Z,9.94
2022-11-12T11:40:38.229Z,9.97
2022-11-12T11:41:38.642Z,9.97
2022-11-12T11:42:39.088Z,10.02
2022-11-12T11:43:38.117Z,10.04
2022-11-12T11:44:37.976Z,10.07
2022-11-12T11:45:37.935Z,10.09
2022-11-12T11:46:37.844Z,10.14
2022-11-12T11:47:59.958Z,10.18
2022-11-12T11:48:37.739Z,10.20
2022-11-12T11:49:37.664Z,10.20
2022-11-12T11:50:38.543Z,10.25
2022-11-12T11:51:37.582Z,10.29
2022-11-12T11:52:37.510Z,10.30
2022-11-12T11:53:38.043Z,10.38
2022-11-12T11:54:37.342Z,10.42
2022-11-12T11:55:37.291Z,10.48
2022-11-12T11:56:37.204Z,10.55
2022-11-12T11:57:37.157Z,10.55
2022-11-12T11:58:37.081Z,10.59
2022-11-12T11:59:37.032Z,10.60
2022-11-12T12:00:36.972Z,10.64
2022-11-12T12:01:36.909Z,10.63
2022-11-12T12:02:36.836Z,10.64
2022-11-12T12:03:36.800Z,10.67
2022-11-12T12:04:36.722Z,10.70
2022-11-12T12:05:36.658Z,10.78
2022-11-12T12:06:36.611Z,10.86
2022-11-12T12:07:36.529Z,10.94
2022-11-12T12:08:36.442Z,10.99
2022-11-12T12:09:36.383Z,11.04
2022-11-12T12:11:01.173Z,11.09
2022-11-12T12:11:36.303Z,11.10
2022-11-12T12:12:36.207Z,11.11
2022-11-12T12:13:36.121Z,11.17
2022-11-12T12:14:36.076Z,11.19
2022-11-12T12:15:36.567Z,11.24
2022-11-12T12:16:35.954Z,11.29
2022-11-12T12:17:36.004Z,11.35
2022-11-12T12:18:35.806Z,11.33
2022-11-12T12:19:35.748Z,11.33
2022-11-12T12:20:35.675Z,11.29
2022-11-12T12:21:35.607Z,11.28
2022-11-12T12:22:35.556Z,11.19
2022-11-12T12:23:35.497Z,11.17
2022-11-12T12:24:35.436Z,11.14
2022-11-12T12:25:35.347Z,11.14
2022-11-12T12:26:35.317Z,11.15
2022-11-12T12:27:35.234Z,11.17
2022-11-12T12:28:35.160Z,11.14
2022-11-12T12:29:35.125Z,11.18
2022-11-12T12:30:35.038Z,11.22
2022-11-12T12:31:35.548Z,11.27
2022-11-12T12:32:34.916Z,11.29
2022-11-12T12:33:34.855Z,11.32
2022-11-12T12:34:34.794Z,11.33
2022-11-12T12:35:34.739Z,11.36
2022-11-12T12:36:34.668Z,11.32
2022-11-12T12:37:34.608Z,11.29
2022-11-12T12:38:34.506Z,11.28
2022-11-12T12:39:34.465Z,11.28
2022-11-12T12:40:34.391Z,11.28
2022-11-12T12:41:34.353Z,11.32
2022-11-12T12:42:34.271Z,11.33
2022-11-12T12:43:34.198Z,11.36
2022-11-12T12:44:34.144Z,11.36
2022-11-12T12:45:36.088Z,11.36
2022-11-12T12:46:34.022Z,11.39
2022-11-12T12:47:34.304Z,11.42
2022-11-12T12:48:33.892Z,11.37
2022-11-12T12:49:33.834Z,11.37
2022-11-12T12:50:33.734Z,11.37
2022-11-12T12:51:33.695Z,11.39
2022-11-12T12:52:33.635Z,11.40
2022-11-12T12:53:33.591Z,11.42
2022-11-12T12:54:33.511Z,11.43
2022-11-12T12:55:33.424Z,11.44
2022-11-12T12:56:33.355Z,11.42
2022-11-12T12:57:33.311Z,11.42
2022-11-12T12:58:33.239Z,11.40
2022-11-12T12:59:33.180Z,11.39
2022-11-12T13:00:33.183Z,11.39
2022-11-12T13:01:33.061Z,11.39
2022-11-12T13:02:33.013Z,11.40
2022-11-12T13:03:32.920Z,11.39
2022-11-12T13:04:32.854Z,11.42
2022-11-12T13:05:32.813Z,11.43
2022-11-12T13:06:32.730Z,11.44
2022-11-12T13:07:32.673Z,11.47
2022-11-12T13:08:32.594Z,11.47
2022-11-12T13:09:32.539Z,11.51
2022-11-12T13:10:32.482Z,11.49
2022-11-12T13:11:32.432Z,11.49
2022-11-12T13:12:32.332Z,11.51
2022-11-12T13:13:32.934Z,11.52
2022-11-12T13:14:32.230Z,11.54
2022-11-12T13:15:32.164Z,11.57
2022-11-12T13:16:32.084Z,11.58
2022-11-12T13:17:53.006Z,11.62
2022-11-12T13:18:32.242Z,11.64
2022-11-12T13:19:31.883Z,11.64
2022-11-12T13:20:31.849Z,11.62
2022-11-12T13:21:31.779Z,11.64
2022-11-12T13:22:31.707Z,11.64
2022-11-12T13:23:31.901Z,11.62
2022-11-12T13:24:31.560Z,11.62
2022-11-12T13:25:31.491Z,11.64
2022-11-12T13:26:31.442Z,11.65
2022-11-12T13:27:31.356Z,11.64
2022-11-12T13:28:31.326Z,11.64